La Barr Meadows, California
Current Conditions -  °F | °C
As of 3:20 PM on Saturday 25 Oct 2014 (Local Time) from KGOO Reporting Station
Overcast Overcast  
Wind Chill: 50°   Ceiling: 500
Heat Index: 50°   Visibility: 9mi
Dew Point: 50°   Wind: 6mph
Humidity: 100%   Direction: 150°SSE
Pressure: 30.11"   Gusts: NA
Location:  39.2183°N, 120.924°W
Report Text: KGOO 252220Z AUTO 15005KT 9SM BKN005 OVC011 10/10 A3011 RMK AO1
Loading
Personal Weather Stations






























Interactive Weather Map
Tropical Storm Tracking
New forecast layout! Learn more

10-Day Weather Forecast

Advertisements
Track Severe Weather on mobile